PWSweather.com
Personal Weather Stations
Station Observations
PENICUIKWS
PenicuikGB

PenicuikGB

Lat: 55.830932, Lon: -3.224533000000065

Elevation: 166

Station Type: Fine Offset

http://weather.penicuik.org

High Low Average
Temperature 48.2°F9.0°C 31.1°F-0.5°C 37.4°F3.0°C
Dew Point 41.9°F5.5°C 26.6°F-3.0°C 29.8°F-1.2°C
Winds 4.7 mph 7.6 kmh Calm Calm 2.0 mph ESE3.2 kmh ESE
Wind Gusts 6.9 mph11.1 kmh -- 3.0 mph4.8 kmh
Humidity 91% 45% 75%
Pressure 29.99 in1015.6 mb 29.86 in1011.2 mb -
Precipitation 0.07 in1.8 mm - -
Hour Temp Dew Point Humidity Winds Wind Gusts Pressure Precip Precip Rate Daily Precip Total
12:00 AM 33.8°F1.0°C 30.6°F-0.8°C 88% 2.5 mph NE4.0 kmh NE 3.1 mph5.0 kmh 29.91 in1012.9 mb 0.00 in0.0 mm 0.00 in0.0 mm 0.00 in0.0 mm
12:15 AM 33.8°F1.0°C 30.6°F-0.8°C 88% 2.4 mph N3.9 kmh N 3.8 mph6.1 kmh 29.91 in1012.9 mb 0.00 in0.0 mm 0.00 in0.0 mm 0.00 in0.0 mm
12:30 AM 33.8°F1.0°C 30.6°F-0.8°C 88% 2.5 mph NNE4.0 kmh NNE 3.8 mph6.1 kmh 29.91 in1012.9 mb 0.00 in0.0 mm 0.00 in0.0 mm 0.00 in0.0 mm
12:45 AM 33.8°F1.0°C 30.6°F-0.8°C 88% 2.6 mph NNE4.2 kmh NNE 4.5 mph7.2 kmh 29.91 in1012.9 mb 0.00 in0.0 mm 0.00 in0.0 mm 0.00 in0.0 mm
01:00 AM 33.8°F1.0°C 30.6°F-0.8°C 88% 1.7 mph N2.7 kmh N 3.8 mph6.1 kmh 29.91 in1012.9 mb 0.00 in0.0 mm 0.00 in0.0 mm 0.00 in0.0 mm
01:15 AM 33.6°F0.9°C 30.7°F-0.7°C 89% 2.2 mph NNE3.5 kmh NNE 3.8 mph6.1 kmh 29.91 in1012.9 mb 0.00 in0.0 mm 0.00 in0.0 mm 0.00 in0.0 mm
01:30 AM 33.8°F1.0°C 30.6°F-0.8°C 88% 1.2 mph N1.9 kmh N 2.2 mph3.5 kmh 29.92 in1013.2 mb 0.00 in0.0 mm 0.00 in0.0 mm 0.00 in0.0 mm
01:45 AM 33.6°F0.9°C 30.7°F-0.7°C 89% 1.6 mph NNE2.6 kmh NNE 3.8 mph6.1 kmh 29.92 in1013.2 mb 0.00 in0.0 mm 0.00 in0.0 mm 0.00 in0.0 mm
02:00 AM 33.6°F0.9°C 30.7°F-0.7°C 89% 1.6 mph N2.6 kmh N 3.1 mph5.0 kmh 29.92 in1013.2 mb 0.00 in0.0 mm 0.00 in0.0 mm 0.00 in0.0 mm
02:15 AM 33.4°F0.8°C 30.6°F-0.8°C 89% 1.5 mph N2.4 kmh N 2.2 mph3.5 kmh 29.92 in1013.2 mb 0.00 in0.0 mm 0.00 in0.0 mm 0.00 in0.0 mm
02:30 AM 33.4°F0.8°C 30.6°F-0.8°C 89% 1.7 mph NNE2.7 kmh NNE 3.1 mph5.0 kmh 29.93 in1013.5 mb 0.00 in0.0 mm 0.00 in0.0 mm 0.00 in0.0 mm
03:00 AM 33.4°F0.8°C 30.6°F-0.8°C 89% 1.4 mph N2.3 kmh N 2.2 mph3.5 kmh 29.93 in1013.5 mb 0.00 in0.0 mm 0.00 in0.0 mm 0.00 in0.0 mm
03:15 AM 33.3°F0.7°C 30.1°F-1.1°C 88% 1.6 mph N2.6 kmh N 2.2 mph3.5 kmh 29.93 in1013.5 mb 0.00 in0.0 mm 0.00 in0.0 mm 0.00 in0.0 mm
03:45 AM 33.3°F0.7°C 30.4°F-0.9°C 89% 0.6 mph N1.0 kmh N 1.6 mph2.6 kmh 29.93 in1013.5 mb 0.00 in0.0 mm 0.00 in0.0 mm 0.00 in0.0 mm
04:00 AM 33.3°F0.7°C 30.4°F-0.9°C 89% 1.0 mph N1.6 kmh N 1.6 mph2.6 kmh 29.93 in1013.5 mb 0.00 in0.0 mm 0.00 in0.0 mm 0.00 in0.0 mm
04:15 AM 33.1°F0.6°C 30.2°F-1.0°C 89% 0.2 mph N0.3 kmh N 0.7 mph1.1 kmh 29.93 in1013.5 mb 0.00 in0.0 mm 0.00 in0.0 mm 0.00 in0.0 mm
04:30 AM 33.1°F0.6°C 30.2°F-1.0°C 89% Calm Calm -- 29.93 in1013.5 mb 0.00 in0.0 mm 0.00 in0.0 mm 0.00 in0.0 mm
05:00 AM 32.9°F0.5°C 30.0°F-1.1°C 89% 0.6 mph N1.0 kmh N 1.6 mph2.6 kmh 29.94 in1013.9 mb 0.00 in0.0 mm 0.00 in0.0 mm 0.00 in0.0 mm
05:15 AM 32.5°F0.3°C 29.4°F-1.4°C 88% Calm Calm -- 29.95 in1014.2 mb 0.00 in0.0 mm 0.00 in0.0 mm 0.00 in0.0 mm
05:30 AM 32.0°F0.0°C 28.9°F-1.7°C 88% Calm Calm -- 29.94 in1013.9 mb 0.00 in0.0 mm 0.00 in0.0 mm 0.00 in0.0 mm
05:45 AM 31.6°F-0.2°C 28.8°F-1.8°C 89% Calm Calm -- 29.94 in1013.9 mb 0.00 in0.0 mm 0.00 in0.0 mm 0.00 in0.0 mm
06:00 AM 31.1°F-0.5°C 28.3°F-2.1°C 89% Calm Calm -- 29.95 in1014.2 mb 0.00 in0.0 mm 0.00 in0.0 mm 0.00 in0.0 mm
06:15 AM 31.5°F-0.3°C 28.6°F-1.9°C 89% Calm Calm -- 29.95 in1014.2 mb 0.00 in0.0 mm 0.00 in0.0 mm 0.00 in0.0 mm
06:30 AM 32.0°F0.0°C 28.9°F-1.7°C 88% Calm Calm -- 29.95 in1014.2 mb 0.00 in0.0 mm 0.00 in0.0 mm 0.00 in0.0 mm
06:45 AM 32.2°F0.1°C 29.0°F-1.7°C 88% 0.6 mph N1.0 kmh N 0.7 mph1.1 kmh 29.95 in1014.2 mb 0.00 in0.0 mm 0.00 in0.0 mm 0.00 in0.0 mm
07:00 AM 32.2°F0.1°C 29.3°F-1.5°C 89% 0.5 mph N0.8 kmh N 1.6 mph2.6 kmh 29.96 in1014.6 mb 0.00 in0.0 mm 0.00 in0.0 mm 0.00 in0.0 mm
07:15 AM 32.4°F0.2°C 29.5°F-1.4°C 89% 1.3 mph N2.1 kmh N 1.6 mph2.6 kmh 29.96 in1014.6 mb 0.00 in0.0 mm 0.00 in0.0 mm 0.00 in0.0 mm
07:30 AM 32.5°F0.3°C 29.7°F-1.3°C 89% 1.7 mph N2.7 kmh N 2.2 mph3.5 kmh 29.97 in1014.9 mb 0.00 in0.0 mm 0.00 in0.0 mm 0.00 in0.0 mm
07:45 AM 33.4°F0.8°C 30.6°F-0.8°C 89% 0.3 mph S0.5 kmh S 1.6 mph2.6 kmh 29.98 in1015.2 mb 0.00 in0.0 mm 0.00 in0.0 mm 0.00 in0.0 mm
08:00 AM 42.1°F5.6°C 39.6°F4.2°C 91% Calm Calm -- 29.97 in1014.9 mb 0.00 in0.0 mm 0.00 in0.0 mm 0.00 in0.0 mm
08:15 AM 46.8°F8.2°C 41.9°F5.5°C 83% 0.8 mph NW1.3 kmh NW 1.6 mph2.6 kmh 29.97 in1014.9 mb 0.01 in0.3 mm 0.04 in1.0 mm 0.01 in0.3 mm
08:30 AM 46.6°F8.1°C 34.3°F1.3°C 62% 2.3 mph SSW3.7 kmh SSW 3.8 mph6.1 kmh 29.98 in1015.2 mb 0.02 in0.5 mm 0.04 in1.0 mm 0.02 in0.5 mm
08:45 AM 45.9°F7.7°C 33.2°F0.7°C 61% 1.4 mph S2.3 kmh S 2.2 mph3.5 kmh 29.98 in1015.2 mb 0.05 in1.3 mm 0.12 in3.0 mm 0.05 in1.3 mm
09:00 AM 42.1°F5.6°C 30.0°F-1.1°C 62% 2.6 mph S4.2 kmh S 3.8 mph6.1 kmh 29.98 in1015.2 mb 0.06 in1.5 mm 0.01 in0.3 mm 0.06 in1.5 mm
09:30 AM 44.4°F6.9°C 31.4°F-0.3°C 60% 1.9 mph NNE3.1 kmh NNE 2.2 mph3.5 kmh 29.99 in1015.6 mb 0.05 in1.3 mm 0.00 in0.0 mm 0.07 in1.8 mm
09:45 AM 42.3°F5.7°C 31.0°F-0.6°C 64% 2.2 mph NW3.5 kmh NW 3.1 mph5.0 kmh 29.99 in1015.6 mb 0.02 in0.5 mm 0.00 in0.0 mm 0.07 in1.8 mm
10:00 AM 46.2°F7.9°C 31.0°F-0.6°C 55% 2.9 mph SSE4.7 kmh SSE 3.8 mph6.1 kmh 29.98 in1015.2 mb 0.01 in0.3 mm 0.00 in0.0 mm 0.07 in1.8 mm
10:15 AM 42.1°F5.6°C 29.6°F-1.3°C 61% 2.2 mph S3.5 kmh S 4.5 mph7.2 kmh 29.99 in1015.6 mb 0.01 in0.3 mm 0.00 in0.0 mm 0.07 in1.8 mm
10:30 AM 42.4°F5.8°C 30.0°F-1.1°C 61% 2.4 mph S3.9 kmh S 3.1 mph5.0 kmh 29.99 in1015.6 mb 0.00 in0.0 mm 0.00 in0.0 mm 0.07 in1.8 mm
11:00 AM 39.6°F4.2°C 29.9°F-1.2°C 68% 1.4 mph W2.3 kmh W 2.2 mph3.5 kmh 29.99 in1015.6 mb 0.00 in0.0 mm 0.00 in0.0 mm 0.07 in1.8 mm
11:15 AM 40.5°F4.7°C 31.5°F-0.3°C 70% 1.8 mph ENE2.9 kmh ENE 2.2 mph3.5 kmh 29.99 in1015.6 mb 0.00 in0.0 mm 0.00 in0.0 mm 0.07 in1.8 mm
11:30 AM 41.7°F5.4°C 32.3°F0.2°C 69% 1.3 mph NNW2.1 kmh NNW 1.6 mph2.6 kmh 29.99 in1015.6 mb 0.00 in0.0 mm 0.00 in0.0 mm 0.07 in1.8 mm
12:00 PM 43.0°F6.1°C 29.6°F-1.3°C 59% 3.0 mph N4.8 kmh N 4.5 mph7.2 kmh 29.99 in1015.6 mb 0.00 in0.0 mm 0.00 in0.0 mm 0.07 in1.8 mm
12:30 PM 48.2°F9.0°C 27.9°F-2.3°C 45% 2.6 mph SE4.2 kmh SE 4.5 mph7.2 kmh 29.98 in1015.2 mb 0.00 in0.0 mm 0.00 in0.0 mm 0.07 in1.8 mm
12:45 PM 44.2°F6.8°C 27.7°F-2.4°C 52% 2.4 mph S3.9 kmh S 3.8 mph6.1 kmh 29.98 in1015.2 mb 0.00 in0.0 mm 0.00 in0.0 mm 0.07 in1.8 mm
01:00 PM 41.4°F5.2°C 30.1°F-1.1°C 64% 4.1 mph WSW6.6 kmh WSW 6.0 mph9.7 kmh 29.99 in1015.6 mb 0.00 in0.0 mm 0.00 in0.0 mm 0.07 in1.8 mm
01:15 PM 39.2°F4.0°C 29.9°F-1.2°C 69% 3.4 mph E5.5 kmh E 4.5 mph7.2 kmh 29.99 in1015.6 mb 0.00 in0.0 mm 0.00 in0.0 mm 0.07 in1.8 mm
01:30 PM 39.2°F4.0°C 30.9°F-0.6°C 72% 2.4 mph NNW3.9 kmh NNW 4.5 mph7.2 kmh 29.98 in1015.2 mb 0.00 in0.0 mm 0.00 in0.0 mm 0.07 in1.8 mm
01:45 PM 39.2°F4.0°C 30.9°F-0.6°C 72% 2.8 mph S4.5 kmh S 4.5 mph7.2 kmh 29.98 in1015.2 mb 0.00 in0.0 mm 0.00 in0.0 mm 0.07 in1.8 mm
02:15 PM 41.7°F5.4°C 32.0°F0.0°C 68% 4.1 mph W6.6 kmh W 6.0 mph9.7 kmh 29.97 in1014.9 mb 0.00 in0.0 mm 0.00 in0.0 mm 0.07 in1.8 mm
02:30 PM 42.6°F5.9°C 30.5°F-0.8°C 62% 2.7 mph NNE4.3 kmh NNE 4.5 mph7.2 kmh 29.96 in1014.6 mb 0.00 in0.0 mm 0.00 in0.0 mm 0.07 in1.8 mm
02:45 PM 42.3°F5.7°C 29.8°F-1.2°C 61% 3.6 mph NW5.8 kmh NW 6.0 mph9.7 kmh 29.96 in1014.6 mb 0.00 in0.0 mm 0.00 in0.0 mm 0.07 in1.8 mm
03:00 PM 43.0°F6.1°C 29.6°F-1.3°C 59% 4.7 mph N7.6 kmh N 6.0 mph9.7 kmh 29.95 in1014.2 mb 0.00 in0.0 mm 0.00 in0.0 mm 0.07 in1.8 mm
03:15 PM 42.8°F6.0°C 29.9°F-1.2°C 60% 2.7 mph N4.3 kmh N 5.4 mph8.7 kmh 29.95 in1014.2 mb 0.00 in0.0 mm 0.00 in0.0 mm 0.07 in1.8 mm
03:30 PM 43.5°F6.4°C 28.9°F-1.7°C 56% 3.1 mph E5.0 kmh E 5.4 mph8.7 kmh 29.94 in1013.9 mb 0.00 in0.0 mm 0.00 in0.0 mm 0.07 in1.8 mm
03:45 PM 43.0°F6.1°C 27.9°F-2.3°C 55% 3.6 mph SE5.8 kmh SE 4.5 mph7.2 kmh 29.94 in1013.9 mb 0.00 in0.0 mm 0.00 in0.0 mm 0.07 in1.8 mm
04:00 PM 41.9°F5.5°C 28.2°F-2.1°C 58% 3.3 mph SW5.3 kmh SW 6.0 mph9.7 kmh 29.94 in1013.9 mb 0.00 in0.0 mm 0.00 in0.0 mm 0.07 in1.8 mm
04:15 PM 41.4°F5.2°C 28.5°F-1.9°C 60% 3.2 mph N5.1 kmh N 4.5 mph7.2 kmh 29.93 in1013.5 mb 0.00 in0.0 mm 0.00 in0.0 mm 0.07 in1.8 mm
04:30 PM 41.4°F5.2°C 28.9°F-1.7°C 61% 3.1 mph SSW5.0 kmh SSW 3.8 mph6.1 kmh 29.94 in1013.9 mb 0.00 in0.0 mm 0.00 in0.0 mm 0.07 in1.8 mm
04:45 PM 41.0°F5.0°C 28.6°F-1.9°C 61% 3.4 mph SE5.5 kmh SE 4.5 mph7.2 kmh 29.94 in1013.9 mb 0.00 in0.0 mm 0.00 in0.0 mm 0.07 in1.8 mm
05:00 PM 40.8°F4.9°C 29.6°F-1.3°C 64% 2.7 mph W4.3 kmh W 4.5 mph7.2 kmh 29.94 in1013.9 mb 0.00 in0.0 mm 0.00 in0.0 mm 0.07 in1.8 mm
05:15 PM 40.5°F4.7°C 30.0°F-1.1°C 66% 2.9 mph WSW4.7 kmh WSW 3.1 mph5.0 kmh 29.93 in1013.5 mb 0.00 in0.0 mm 0.00 in0.0 mm 0.07 in1.8 mm
05:30 PM 39.9°F4.4°C 29.5°F-1.4°C 66% 2.9 mph S4.7 kmh S 4.5 mph7.2 kmh 29.93 in1013.5 mb 0.00 in0.0 mm 0.00 in0.0 mm 0.07 in1.8 mm
05:45 PM 39.6°F4.2°C 30.2°F-1.0°C 69% 3.6 mph S5.8 kmh S 4.5 mph7.2 kmh 29.93 in1013.5 mb 0.00 in0.0 mm 0.00 in0.0 mm 0.07 in1.8 mm
06:00 PM 39.0°F3.9°C 30.4°F-0.9°C 71% 2.8 mph S4.5 kmh S 4.5 mph7.2 kmh 29.93 in1013.5 mb 0.00 in0.0 mm 0.00 in0.0 mm 0.07 in1.8 mm
06:15 PM 38.3°F3.5°C 30.1°F-1.1°C 72% 4.0 mph SE6.4 kmh SE 5.4 mph8.7 kmh 29.93 in1013.5 mb 0.00 in0.0 mm 0.00 in0.0 mm 0.07 in1.8 mm
06:30 PM 38.3°F3.5°C 30.8°F-0.7°C 74% 4.7 mph S7.6 kmh S 6.9 mph11.1 kmh 29.93 in1013.5 mb 0.00 in0.0 mm 0.00 in0.0 mm 0.07 in1.8 mm
06:45 PM 37.4°F3.0°C 30.2°F-1.0°C 75% 3.8 mph S6.1 kmh S 6.9 mph11.1 kmh 29.93 in1013.5 mb 0.00 in0.0 mm 0.00 in0.0 mm 0.07 in1.8 mm
07:00 PM 36.9°F2.7°C 29.0°F-1.7°C 73% 3.0 mph SSE4.8 kmh SSE 3.8 mph6.1 kmh 29.92 in1013.2 mb 0.00 in0.0 mm 0.00 in0.0 mm 0.07 in1.8 mm
07:30 PM 36.3°F2.4°C 28.5°F-1.9°C 73% 3.9 mph S6.3 kmh S 5.4 mph8.7 kmh 29.92 in1013.2 mb 0.00 in0.0 mm 0.00 in0.0 mm 0.07 in1.8 mm
07:45 PM 36.1°F2.3°C 28.3°F-2.1°C 73% 3.1 mph S5.0 kmh S 5.4 mph8.7 kmh 29.92 in1013.2 mb 0.00 in0.0 mm 0.00 in0.0 mm 0.07 in1.8 mm
08:00 PM 36.3°F2.4°C 28.5°F-1.9°C 73% 4.3 mph SSE6.9 kmh SSE 6.0 mph9.7 kmh 29.92 in1013.2 mb 0.00 in0.0 mm 0.00 in0.0 mm 0.07 in1.8 mm
08:15 PM 36.1°F2.3°C 28.0°F-2.2°C 72% 3.9 mph S6.3 kmh S 5.4 mph8.7 kmh 29.91 in1012.9 mb 0.00 in0.0 mm 0.00 in0.0 mm 0.07 in1.8 mm
08:30 PM 36.1°F2.3°C 28.0°F-2.2°C 72% 3.6 mph SE5.8 kmh SE 4.5 mph7.2 kmh 29.91 in1012.9 mb 0.00 in0.0 mm 0.00 in0.0 mm 0.07 in1.8 mm
08:45 PM 36.0°F2.2°C 27.8°F-2.3°C 72% 1.1 mph SW1.8 kmh SW 2.2 mph3.5 kmh 29.91 in1012.9 mb 0.00 in0.0 mm 0.00 in0.0 mm 0.07 in1.8 mm
09:00 PM 35.6°F2.0°C 27.5°F-2.5°C 72% 0.6 mph S1.0 kmh S 2.2 mph3.5 kmh 29.91 in1012.9 mb 0.00 in0.0 mm 0.00 in0.0 mm 0.07 in1.8 mm
09:15 PM 35.4°F1.9°C 28.0°F-2.2°C 74% 0.9 mph WSW1.4 kmh WSW 2.2 mph3.5 kmh 29.90 in1012.5 mb 0.00 in0.0 mm 0.00 in0.0 mm 0.07 in1.8 mm
09:30 PM 34.9°F1.6°C 27.5°F-2.5°C 74% 0.2 mph SW0.3 kmh SW 1.6 mph2.6 kmh 29.89 in1012.2 mb 0.00 in0.0 mm 0.00 in0.0 mm 0.07 in1.8 mm
09:45 PM 34.7°F1.5°C 27.6°F-2.4°C 75% Calm Calm -- 29.89 in1012.2 mb 0.00 in0.0 mm 0.00 in0.0 mm 0.07 in1.8 mm
10:00 PM 34.7°F1.5°C 27.9°F-2.3°C 76% Calm Calm -- 29.89 in1012.2 mb 0.00 in0.0 mm 0.00 in0.0 mm 0.07 in1.8 mm
10:15 PM 34.3°F1.3°C 27.6°F-2.4°C 76% Calm Calm -- 29.89 in1012.2 mb 0.00 in0.0 mm 0.00 in0.0 mm 0.07 in1.8 mm
10:30 PM 34.0°F1.1°C 27.2°F-2.7°C 76% Calm Calm -- 29.89 in1012.2 mb 0.00 in0.0 mm 0.00 in0.0 mm 0.07 in1.8 mm
10:45 PM 33.4°F0.8°C 27.3°F-2.6°C 78% Calm Calm -- 29.88 in1011.9 mb 0.00 in0.0 mm 0.00 in0.0 mm 0.07 in1.8 mm
11:00 PM 33.1°F0.6°C 27.3°F-2.6°C 79% 0.1 mph S0.2 kmh S 0.7 mph1.1 kmh 29.88 in1011.9 mb 0.00 in0.0 mm 0.00 in0.0 mm 0.06 in1.5 mm
11:15 PM 32.5°F0.3°C 27.1°F-2.7°C 80% Calm Calm -- 29.87 in1011.5 mb 0.00 in0.0 mm 0.00 in0.0 mm 0.06 in1.5 mm
11:30 PM 32.2°F0.1°C 26.7°F-2.9°C 80% Calm Calm -- 29.87 in1011.5 mb 0.00 in0.0 mm 0.00 in0.0 mm 0.06 in1.5 mm
11:45 PM 32.0°F0.0°C 26.6°F-3.0°C 80% Calm Calm -- 29.86 in1011.2 mb 0.00 in0.0 mm 0.00 in0.0 mm 0.06 in1.5 mm